x

Venice, Fl (venf1) Weather Station

10:00pm - Thu 23rd Feb 2017 All times are EST. -5 hours from GMT.

  • Wind
    14mph, 16mph gusts
  • Sea Temp 71°f
  • Air Temp 72°f
  • Sea Pressure 1006.6mb
  • Venice, Fl
  • Venice, Fl

More Historic Weather Station data

Upgrade to MSW Pro to gain access to the past 30 days of data for over 8000 Wavebouys and Weather Stations around the globe.

Join Pro

Comparision Forecast

View Surf forecast
   
Thu 02/23 10:00pm 14 16 mph 1006.6mb 71f 72f
9:00pm 8 9 mph 1005.9mb 71f 72f
8:00pm 7 8 mph 1005.3mb 71f 71f
7:00pm 14
mph
1004.2mb 71f 70f
6:00pm 11
mph
1003.5mb 71f 70f
5:00pm 13 14 mph 1002.8mb 71f 70f
4:00pm 8
mph
1002.6mb 71f 71f
3:00pm 3 5 mph 1002.6mb 70f 71f
2:00pm 5 7 mph 1003.1mb 70f 68f
1:00pm 13 14 mph 1003.7mb 70f 67f
12:00pm 20 22 mph 1004mb 70f 68f
11:00am 15 16 mph 1004.3mb 70f 67f
10:00am 13 14 mph 1004.3mb 70f 67f
9:00am 3 5 mph 1003.8mb 70f 67f
8:00am 6 8 mph 1003.9mb 70f 64f
7:00am 15 17 mph 1003.6mb 70f 66f
6:00am 9 10 mph 1003.3mb 70f 65f
5:00am 6 7 mph 1002.9mb 70f 63f
Wed 02/22 5:00am 8 9 mph 1007.8mb 70f 69f
4:00am 9 14 mph 1007.7mb 70f 69f
3:00am 13 15 mph 1007.9mb 70f 69f
2:00am 13 16 mph 1009.2mb 70f 69f
1:00am 9 11 mph 1010.8mb 70f 69f
12:00am 8 10 mph 1011.4mb 70f 68f
Tue 02/21 11:00pm 8 11 mph 1012.3mb 70f 69f
10:00pm 8 10 mph 1012.6mb 70f 71f
9:00pm 9 11 mph 1013.3mb 70f 71f
8:00pm 9 10 mph 1013.7mb 70f 71f
7:00pm 11
mph
1013.9mb 70f 71f
6:00pm 8 9 mph 1013.9mb 71f 71f
5:00pm 8 9 mph 1014mb 71f 71f
4:00pm 13 14 mph 1014mb 70f 71f
3:00pm 14 15 mph 1014.6mb 70f 71f
2:00pm 10 13 mph 1015.1mb 70f 71f
1:00pm 9 10 mph 1017mb 70f 72f
12:00pm 11 14 mph 1018.1mb 70f 74f
11:00am 8 10 mph 1018.8mb 69f 73f
10:00am 8 10 mph 1018.9mb 69f 70f
9:00am 6 8 mph 1019mb 69f 67f
8:00am 7 8 mph 1018.6mb 69f 65f
7:00am 8 9 mph 1018.7mb 69f 65f
6:00am 8 9 mph 1018.4mb 69f 65f
5:00am 7 9 mph 1018mb 69f 64f
4:00am 7 8 mph 1017.8mb 70f 64f
3:00am 7 8 mph 1017.6mb 70f 65f
2:00am 7
mph
1017.8mb 70f 68f
1:00am  -  mph 1018.5mb 70f 67f
12:00am 2
mph
1018.6mb 70f 67f
Mon 02/20 11:00pm 6 7 mph 1018.8mb 70f 67f
10:00pm 6 7 mph 1018.9mb 71f 68f
9:00pm 5 6 mph 1018.9mb 71f 69f
8:00pm 5 6 mph 1018.7mb 71f 70f
7:00pm 8 9 mph 1018.5mb 71f 71f
6:00pm 6 7 mph 1018.2mb 71f 71f
5:00pm 7 8 mph 1018.1mb 71f 72f
4:00pm 8 9 mph 1017.8mb 71f 73f
3:00pm 9 10 mph 1017.6mb 71f 73f
2:00pm 10 11 mph 1017.9mb 70f 73f
1:00pm 9 10 mph 1018.5mb 69f 74f
12:00pm 8 10 mph 1019.6mb 69f 78f
11:00am 9 11 mph 1020.4mb 69f 76f
10:00am 6 7 mph 1020.4mb 69f 72f
9:00am 8 10 mph 1020.1mb 68f 65f
8:00am 6 7 mph 1019.7mb 69f 60f
7:00am 6 7 mph 1019.2mb 69f 58f
6:00am 8 9 mph 1018.3mb 69f 59f
5:00am 8 10 mph 1018.2mb 69f 59f